sensor_id;sensor_type;location;lat;lon;timestamp;temperature;humidity
20174;DHT22;10246;50.620;7.232;2022-09-03T00:01:34;17.30;1.00
20174;DHT22;10246;50.620;7.232;2022-09-03T00:04:07;17.30;1.00
20174;DHT22;10246;50.620;7.232;2022-09-03T00:06:41;17.10;1.00
20174;DHT22;10246;50.620;7.232;2022-09-03T00:09:13;17.00;1.00
20174;DHT22;10246;50.620;7.232;2022-09-03T00:11:46;17.10;1.00
20174;DHT22;10246;50.620;7.232;2022-09-03T00:14:19;17.10;1.00
20174;DHT22;10246;50.620;7.232;2022-09-03T00:16:49;17.10;1.00
20174;DHT22;10246;50.620;7.232;2022-09-03T00:19:22;17.00;1.00
20174;DHT22;10246;50.620;7.232;2022-09-03T00:21:55;17.10;1.00
20174;DHT22;10246;50.620;7.232;2022-09-03T00:24:27;17.00;1.00
20174;DHT22;10246;50.620;7.232;2022-09-03T00:26:59;17.00;1.00
20174;DHT22;10246;50.620;7.232;2022-09-03T00:29:32;17.00;1.00
20174;DHT22;10246;50.620;7.232;2022-09-03T00:32:04;16.90;1.00
20174;DHT22;10246;50.620;7.232;2022-09-03T00:34:37;16.80;1.00
20174;DHT22;10246;50.620;7.232;2022-09-03T00:37:09;16.70;1.00
20174;DHT22;10246;50.620;7.232;2022-09-03T00:39:36;16.70;1.00
20174;DHT22;10246;50.620;7.232;2022-09-03T00:42:20;16.70;1.00
20174;DHT22;10246;50.620;7.232;2022-09-03T00:45:02;16.70;1.00
20174;DHT22;10246;50.620;7.232;2022-09-03T00:47:36;16.70;1.00
20174;DHT22;10246;50.620;7.232;2022-09-03T00:50:09;16.70;1.00
20174;DHT22;10246;50.620;7.232;2022-09-03T00:52:51;16.70;1.00
20174;DHT22;10246;50.620;7.232;2022-09-03T00:55:26;16.70;1.00
20174;DHT22;10246;50.620;7.232;2022-09-03T00:58:08;16.70;1.00
20174;DHT22;10246;50.620;7.232;2022-09-03T01:00:38;16.60;1.00
20174;DHT22;10246;50.620;7.232;2022-09-03T01:03:10;16.30;1.00
20174;DHT22;10246;50.620;7.232;2022-09-03T01:05:46;16.20;1.00
20174;DHT22;10246;50.620;7.232;2022-09-03T01:08:32;16.20;1.00
20174;DHT22;10246;50.620;7.232;2022-09-03T01:11:11;16.30;1.00
20174;DHT22;10246;50.620;7.232;2022-09-03T01:13:47;16.30;1.00
20174;DHT22;10246;50.620;7.232;2022-09-03T01:16:24;16.40;1.00
20174;DHT22;10246;50.620;7.232;2022-09-03T01:18:57;16.40;1.00
20174;DHT22;10246;50.620;7.232;2022-09-03T01:21:42;16.40;1.00
20174;DHT22;10246;50.620;7.232;2022-09-03T01:24:36;16.40;1.00
20174;DHT22;10246;50.620;7.232;2022-09-03T01:27:20;16.30;1.00
20174;DHT22;10246;50.620;7.232;2022-09-03T01:29:53;16.30;1.00
20174;DHT22;10246;50.620;7.232;2022-09-03T01:32:24;16.20;1.00
20174;DHT22;10246;50.620;7.232;2022-09-03T01:35:03;16.20;1.00
20174;DHT22;10246;50.620;7.232;2022-09-03T01:37:43;16.20;1.00
20174;DHT22;10246;50.620;7.232;2022-09-03T01:40:17;16.20;1.00
20174;DHT22;10246;50.620;7.232;2022-09-03T01:42:56;16.20;1.00
20174;DHT22;10246;50.620;7.232;2022-09-03T01:45:34;16.20;1.00
20174;DHT22;10246;50.620;7.232;2022-09-03T01:48:13;16.20;1.00
20174;DHT22;10246;50.620;7.232;2022-09-03T01:50:47;16.10;1.00
20174;DHT22;10246;50.620;7.232;2022-09-03T01:53:26;16.00;1.00
20174;DHT22;10246;50.620;7.232;2022-09-03T01:56:09;16.00;1.00
20174;DHT22;10246;50.620;7.232;2022-09-03T01:58:40;16.00;1.00
20174;DHT22;10246;50.620;7.232;2022-09-03T02:01:16;16.00;1.00
20174;DHT22;10246;50.620;7.232;2022-09-03T02:03:47;16.00;1.00
20174;DHT22;10246;50.620;7.232;2022-09-03T02:06:14;16.00;1.00
20174;DHT22;10246;50.620;7.232;2022-09-03T02:08:43;16.10;1.00
20174;DHT22;10246;50.620;7.232;2022-09-03T02:11:10;16.00;1.00
20174;DHT22;10246;50.620;7.232;2022-09-03T02:13:39;16.00;1.00
20174;DHT22;10246;50.620;7.232;2022-09-03T02:16:12;16.00;1.00
20174;DHT22;10246;50.620;7.232;2022-09-03T02:18:42;16.00;1.00
20174;DHT22;10246;50.620;7.232;2022-09-03T02:21:11;16.00;1.00
20174;DHT22;10246;50.620;7.232;2022-09-03T02:23:39;16.00;1.00
20174;DHT22;10246;50.620;7.232;2022-09-03T02:26:08;16.00;1.00
20174;DHT22;10246;50.620;7.232;2022-09-03T02:28:36;16.10;1.00
20174;DHT22;10246;50.620;7.232;2022-09-03T02:31:03;16.00;1.00
20174;DHT22;10246;50.620;7.232;2022-09-03T02:33:36;16.00;1.00
20174;DHT22;10246;50.620;7.232;2022-09-03T02:36:05;16.00;1.00
20174;DHT22;10246;50.620;7.232;2022-09-03T02:38:33;16.00;1.00
20174;DHT22;10246;50.620;7.232;2022-09-03T02:41:00;16.00;1.00
20174;DHT22;10246;50.620;7.232;2022-09-03T02:43:33;16.00;1.00
20174;DHT22;10246;50.620;7.232;2022-09-03T02:46:04;16.10;1.00
20174;DHT22;10246;50.620;7.232;2022-09-03T02:48:34;16.10;1.00
20174;DHT22;10246;50.620;7.232;2022-09-03T02:51:01;16.10;1.00
20174;DHT22;10246;50.620;7.232;2022-09-03T02:53:28;16.00;1.00
20174;DHT22;10246;50.620;7.232;2022-09-03T02:55:57;16.00;1.00
20174;DHT22;10246;50.620;7.232;2022-09-03T02:58:25;16.00;1.00
20174;DHT22;10246;50.620;7.232;2022-09-03T03:00:52;16.00;1.00
20174;DHT22;10246;50.620;7.232;2022-09-03T03:03:20;16.00;1.00
20174;DHT22;10246;50.620;7.232;2022-09-03T03:05:50;16.00;1.00
20174;DHT22;10246;50.620;7.232;2022-09-03T03:08:18;16.10;1.00
20174;DHT22;10246;50.620;7.232;2022-09-03T03:10:51;16.00;1.00
20174;DHT22;10246;50.620;7.232;2022-09-03T03:13:18;16.00;1.00
20174;DHT22;10246;50.620;7.232;2022-09-03T03:15:45;16.10;1.00
20174;DHT22;10246;50.620;7.232;2022-09-03T03:18:13;16.10;1.00
20174;DHT22;10246;50.620;7.232;2022-09-03T03:20:42;16.10;1.00
20174;DHT22;10246;50.620;7.232;2022-09-03T03:23:11;16.10;1.00
20174;DHT22;10246;50.620;7.232;2022-09-03T03:25:38;16.10;1.00
20174;DHT22;10246;50.620;7.232;2022-09-03T03:28:06;16.10;1.00
20174;DHT22;10246;50.620;7.232;2022-09-03T03:30:35;16.10;1.00
20174;DHT22;10246;50.620;7.232;2022-09-03T03:33:03;16.10;1.00
20174;DHT22;10246;50.620;7.232;2022-09-03T03:35:30;16.10;1.00
20174;DHT22;10246;50.620;7.232;2022-09-03T03:37:56;16.00;1.00
20174;DHT22;10246;50.620;7.232;2022-09-03T03:40:25;16.10;1.00
20174;DHT22;10246;50.620;7.232;2022-09-03T03:42:52;16.10;1.00
20174;DHT22;10246;50.620;7.232;2022-09-03T03:45:19;16.10;1.00
20174;DHT22;10246;50.620;7.232;2022-09-03T03:47:46;16.10;1.00
20174;DHT22;10246;50.620;7.232;2022-09-03T03:50:13;16.10;1.00
20174;DHT22;10246;50.620;7.232;2022-09-03T03:52:41;16.10;1.00
20174;DHT22;10246;50.620;7.232;2022-09-03T03:55:11;16.10;1.00
20174;DHT22;10246;50.620;7.232;2022-09-03T03:57:41;16.20;1.00
20174;DHT22;10246;50.620;7.232;2022-09-03T04:00:09;16.20;1.00
20174;DHT22;10246;50.620;7.232;2022-09-03T04:02:36;16.20;1.00
20174;DHT22;10246;50.620;7.232;2022-09-03T04:05:03;16.10;1.00
20174;DHT22;10246;50.620;7.232;2022-09-03T04:07:30;16.20;1.00
20174;DHT22;10246;50.620;7.232;2022-09-03T04:09:57;16.20;1.00
20174;DHT22;10246;50.620;7.232;2022-09-03T04:12:26;16.20;1.00
20174;DHT22;10246;50.620;7.232;2022-09-03T04:14:56;16.20;1.00
20174;DHT22;10246;50.620;7.232;2022-09-03T04:17:23;16.10;1.00
20174;DHT22;10246;50.620;7.232;2022-09-03T04:19:50;16.20;1.00
20174;DHT22;10246;50.620;7.232;2022-09-03T04:22:17;16.20;1.00
20174;DHT22;10246;50.620;7.232;2022-09-03T04:24:45;16.10;1.00
20174;DHT22;10246;50.620;7.232;2022-09-03T04:27:12;16.20;1.00
20174;DHT22;10246;50.620;7.232;2022-09-03T04:29:39;16.20;1.00
20174;DHT22;10246;50.620;7.232;2022-09-03T04:32:07;16.20;1.00
20174;DHT22;10246;50.620;7.232;2022-09-03T04:34:51;16.20;1.00
20174;DHT22;10246;50.620;7.232;2022-09-03T04:37:18;16.20;1.00
20174;DHT22;10246;50.620;7.232;2022-09-03T04:39:45;16.20;1.00
20174;DHT22;10246;50.620;7.232;2022-09-03T04:42:12;16.20;1.00
20174;DHT22;10246;50.620;7.232;2022-09-03T04:44:39;16.20;1.00
20174;DHT22;10246;50.620;7.232;2022-09-03T04:47:07;16.20;1.00
20174;DHT22;10246;50.620;7.232;2022-09-03T04:49:34;16.30;1.00
20174;DHT22;10246;50.620;7.232;2022-09-03T04:52:02;16.20;1.00
20174;DHT22;10246;50.620;7.232;2022-09-03T04:54:29;16.20;1.00
20174;DHT22;10246;50.620;7.232;2022-09-03T04:56:56;16.20;1.00
20174;DHT22;10246;50.620;7.232;2022-09-03T04:59:23;16.10;1.00
20174;DHT22;10246;50.620;7.232;2022-09-03T05:01:49;16.20;1.00
20174;DHT22;10246;50.620;7.232;2022-09-03T05:04:19;16.10;1.00
20174;DHT22;10246;50.620;7.232;2022-09-03T05:06:46;16.10;1.00
20174;DHT22;10246;50.620;7.232;2022-09-03T05:09:12;16.20;1.00
20174;DHT22;10246;50.620;7.232;2022-09-03T05:11:39;16.20;1.00
20174;DHT22;10246;50.620;7.232;2022-09-03T05:14:06;16.20;1.00
20174;DHT22;10246;50.620;7.232;2022-09-03T05:16:37;16.20;1.00
20174;DHT22;10246;50.620;7.232;2022-09-03T05:19:04;16.20;1.00
20174;DHT22;10246;50.620;7.232;2022-09-03T05:21:37;16.30;1.00
20174;DHT22;10246;50.620;7.232;2022-09-03T05:24:04;16.40;1.00
20174;DHT22;10246;50.620;7.232;2022-09-03T05:26:36;16.40;1.00
20174;DHT22;10246;50.620;7.232;2022-09-03T05:29:04;16.50;1.00
20174;DHT22;10246;50.620;7.232;2022-09-03T05:31:33;16.60;1.00
20174;DHT22;10246;50.620;7.232;2022-09-03T05:34:04;16.60;1.00
20174;DHT22;10246;50.620;7.232;2022-09-03T05:36:32;16.70;1.00
20174;DHT22;10246;50.620;7.232;2022-09-03T05:39:01;16.70;1.00
20174;DHT22;10246;50.620;7.232;2022-09-03T05:41:28;16.80;1.00
20174;DHT22;10246;50.620;7.232;2022-09-03T05:43:58;16.80;1.00
20174;DHT22;10246;50.620;7.232;2022-09-03T05:46:26;16.90;1.00
20174;DHT22;10246;50.620;7.232;2022-09-03T05:48:56;16.90;1.00
20174;DHT22;10246;50.620;7.232;2022-09-03T05:51:27;16.90;1.00
20174;DHT22;10246;50.620;7.232;2022-09-03T05:53:54;16.90;1.00
20174;DHT22;10246;50.620;7.232;2022-09-03T05:56:24;17.00;1.00
20174;DHT22;10246;50.620;7.232;2022-09-03T05:58:53;16.90;1.00
20174;DHT22;10246;50.620;7.232;2022-09-03T06:01:25;16.90;1.00
20174;DHT22;10246;50.620;7.232;2022-09-03T06:03:59;16.90;1.00
20174;DHT22;10246;50.620;7.232;2022-09-03T06:06:28;16.90;1.00
20174;DHT22;10246;50.620;7.232;2022-09-03T06:08:59;17.00;1.00
20174;DHT22;10246;50.620;7.232;2022-09-03T06:11:34;17.00;1.00
20174;DHT22;10246;50.620;7.232;2022-09-03T06:14:08;17.00;1.00
20174;DHT22;10246;50.620;7.232;2022-09-03T06:16:39;17.00;1.00
20174;DHT22;10246;50.620;7.232;2022-09-03T06:19:07;17.10;1.00
20174;DHT22;10246;50.620;7.232;2022-09-03T06:21:35;17.10;1.00
20174;DHT22;10246;50.620;7.232;2022-09-03T06:24:03;17.20;1.00
20174;DHT22;10246;50.620;7.232;2022-09-03T06:26:32;17.20;1.00
20174;DHT22;10246;50.620;7.232;2022-09-03T06:28:59;17.30;1.00
20174;DHT22;10246;50.620;7.232;2022-09-03T06:31:29;17.30;1.00
20174;DHT22;10246;50.620;7.232;2022-09-03T06:33:56;17.30;1.00
20174;DHT22;10246;50.620;7.232;2022-09-03T06:36:24;17.30;1.00
20174;DHT22;10246;50.620;7.232;2022-09-03T06:38:53;17.30;1.00
20174;DHT22;10246;50.620;7.232;2022-09-03T06:41:21;17.40;1.00
20174;DHT22;10246;50.620;7.232;2022-09-03T06:43:52;17.40;1.00
20174;DHT22;10246;50.620;7.232;2022-09-03T06:46:20;17.50;1.00
20174;DHT22;10246;50.620;7.232;2022-09-03T06:48:47;17.60;1.00
20174;DHT22;10246;50.620;7.232;2022-09-03T06:51:17;17.70;1.00
20174;DHT22;10246;50.620;7.232;2022-09-03T06:53:46;17.70;1.00
20174;DHT22;10246;50.620;7.232;2022-09-03T06:56:15;17.70;1.00
20174;DHT22;10246;50.620;7.232;2022-09-03T06:58:53;17.70;1.00
20174;DHT22;10246;50.620;7.232;2022-09-03T07:01:22;17.70;1.00
20174;DHT22;10246;50.620;7.232;2022-09-03T07:03:53;17.70;1.00
20174;DHT22;10246;50.620;7.232;2022-09-03T07:06:24;17.70;1.00
20174;DHT22;10246;50.620;7.232;2022-09-03T07:08:53;17.70;1.00
20174;DHT22;10246;50.620;7.232;2022-09-03T07:11:21;17.70;1.00
20174;DHT22;10246;50.620;7.232;2022-09-03T07:13:52;17.70;1.00
20174;DHT22;10246;50.620;7.232;2022-09-03T07:16:22;17.70;1.00
20174;DHT22;10246;50.620;7.232;2022-09-03T07:18:49;17.70;1.00
20174;DHT22;10246;50.620;7.232;2022-09-03T07:21:18;17.80;1.00
20174;DHT22;10246;50.620;7.232;2022-09-03T07:23:47;17.80;1.00
20174;DHT22;10246;50.620;7.232;2022-09-03T07:26:19;17.90;1.00
20174;DHT22;10246;50.620;7.232;2022-09-03T07:28:46;18.00;1.00
20174;DHT22;10246;50.620;7.232;2022-09-03T07:31:16;18.00;1.00
20174;DHT22;10246;50.620;7.232;2022-09-03T07:33:44;18.00;1.00
20174;DHT22;10246;50.620;7.232;2022-09-03T07:36:14;18.00;1.00
20174;DHT22;10246;50.620;7.232;2022-09-03T07:38:42;18.00;1.00
20174;DHT22;10246;50.620;7.232;2022-09-03T07:41:11;18.00;1.00
20174;DHT22;10246;50.620;7.232;2022-09-03T07:43:40;17.90;1.00
20174;DHT22;10246;50.620;7.232;2022-09-03T07:46:11;17.70;1.00
20174;DHT22;10246;50.620;7.232;2022-09-03T07:48:40;17.60;1.00
20174;DHT22;10246;50.620;7.232;2022-09-03T07:51:08;17.40;1.00
20174;DHT22;10246;50.620;7.232;2022-09-03T07:53:35;17.40;1.00
20174;DHT22;10246;50.620;7.232;2022-09-03T07:56:03;17.30;1.00
20174;DHT22;10246;50.620;7.232;2022-09-03T07:58:40;17.30;1.00
20174;DHT22;10246;50.620;7.232;2022-09-03T08:01:18;17.40;1.00
20174;DHT22;10246;50.620;7.232;2022-09-03T08:03:59;17.40;1.00
20174;DHT22;10246;50.620;7.232;2022-09-03T08:06:37;17.50;1.00
20174;DHT22;10246;50.620;7.232;2022-09-03T08:09:14;17.50;1.00
20174;DHT22;10246;50.620;7.232;2022-09-03T08:11:43;17.50;1.00
20174;DHT22;10246;50.620;7.232;2022-09-03T08:17:44;17.50;1.00
20174;DHT22;10246;50.620;7.232;2022-09-03T08:20:31;17.60;1.00
20174;DHT22;10246;50.620;7.232;2022-09-03T08:23:12;17.70;1.00
20174;DHT22;10246;50.620;7.232;2022-09-03T08:26:04;17.70;1.00
20174;DHT22;10246;50.620;7.232;2022-09-03T08:28:51;17.80;1.00
20174;DHT22;10246;50.620;7.232;2022-09-03T08:31:40;17.80;1.00
20174;DHT22;10246;50.620;7.232;2022-09-03T08:34:09;17.80;1.00
20174;DHT22;10246;50.620;7.232;2022-09-03T08:36:42;17.90;1.00
20174;DHT22;10246;50.620;7.232;2022-09-03T08:39:15;18.00;1.00
20174;DHT22;10246;50.620;7.232;2022-09-03T08:47:58;18.40;1.00
20174;DHT22;10246;50.620;7.232;2022-09-03T08:50:53;18.50;1.00
20174;DHT22;10246;50.620;7.232;2022-09-03T08:53:35;18.60;1.00
20174;DHT22;10246;50.620;7.232;2022-09-03T08:56:09;18.60;1.00
20174;DHT22;10246;50.620;7.232;2022-09-03T08:58:38;18.70;1.00
20174;DHT22;10246;50.620;7.232;2022-09-03T09:01:27;18.80;1.00
20174;DHT22;10246;50.620;7.232;2022-09-03T09:04:09;18.90;1.00
20174;DHT22;10246;50.620;7.232;2022-09-03T09:06:48;18.90;1.00
20174;DHT22;10246;50.620;7.232;2022-09-03T09:09:27;18.90;1.00
20174;DHT22;10246;50.620;7.232;2022-09-03T09:12:03;18.90;1.00
20174;DHT22;10246;50.620;7.232;2022-09-03T09:14:37;18.90;1.00
20174;DHT22;10246;50.620;7.232;2022-09-03T09:17:26;18.90;1.00
20174;DHT22;10246;50.620;7.232;2022-09-03T09:20:04;19.00;1.00
20174;DHT22;10246;50.620;7.232;2022-09-03T09:22:37;19.10;1.00
20174;DHT22;10246;50.620;7.232;2022-09-03T09:25:10;19.10;1.00
20174;DHT22;10246;50.620;7.232;2022-09-03T09:27:45;19.20;1.00
20174;DHT22;10246;50.620;7.232;2022-09-03T09:30:16;19.40;1.00
20174;DHT22;10246;50.620;7.232;2022-09-03T09:32:43;19.50;1.00
20174;DHT22;10246;50.620;7.232;2022-09-03T09:35:12;19.50;1.00
20174;DHT22;10246;50.620;7.232;2022-09-03T09:37:46;19.60;1.00
20174;DHT22;10246;50.620;7.232;2022-09-03T09:40:25;19.60;1.00
20174;DHT22;10246;50.620;7.232;2022-09-03T09:43:02;19.80;1.00
20174;DHT22;10246;50.620;7.232;2022-09-03T09:45:29;19.90;1.00
20174;DHT22;10246;50.620;7.232;2022-09-03T09:47:58;20.00;1.00
20174;DHT22;10246;50.620;7.232;2022-09-03T09:50:26;20.10;1.00
20174;DHT22;10246;50.620;7.232;2022-09-03T09:53:00;20.30;1.00
20174;DHT22;10246;50.620;7.232;2022-09-03T09:55:31;20.50;1.00
20174;DHT22;10246;50.620;7.232;2022-09-03T09:58:05;20.70;1.00
20174;DHT22;10246;50.620;7.232;2022-09-03T10:00:34;20.80;1.00
20174;DHT22;10246;50.620;7.232;2022-09-03T10:03:06;20.90;1.00
20174;DHT22;10246;50.620;7.232;2022-09-03T10:05:36;21.20;1.00
20174;DHT22;10246;50.620;7.232;2022-09-03T10:08:06;21.30;1.00
20174;DHT22;10246;50.620;7.232;2022-09-03T10:10:40;21.20;1.00
20174;DHT22;10246;50.620;7.232;2022-09-03T10:13:11;21.20;1.00
20174;DHT22;10246;50.620;7.232;2022-09-03T10:15:47;21.30;1.00
20174;DHT22;10246;50.620;7.232;2022-09-03T10:18:21;21.40;1.00
20174;DHT22;10246;50.620;7.232;2022-09-03T10:20:58;21.50;1.00
20174;DHT22;10246;50.620;7.232;2022-09-03T10:23:34;21.50;1.00
20174;DHT22;10246;50.620;7.232;2022-09-03T10:26:09;21.30;1.00
20174;DHT22;10246;50.620;7.232;2022-09-03T10:28:38;21.40;1.00
20174;DHT22;10246;50.620;7.232;2022-09-03T10:31:17;21.30;1.00
20174;DHT22;10246;50.620;7.232;2022-09-03T10:33:52;21.30;1.00
20174;DHT22;10246;50.620;7.232;2022-09-03T10:36:24;21.30;1.00
20174;DHT22;10246;50.620;7.232;2022-09-03T10:39:00;21.30;1.00
20174;DHT22;10246;50.620;7.232;2022-09-03T10:41:40;21.30;1.00
20174;DHT22;10246;50.620;7.232;2022-09-03T10:44:28;21.40;1.00
20174;DHT22;10246;50.620;7.232;2022-09-03T10:47:06;21.30;1.00
20174;DHT22;10246;50.620;7.232;2022-09-03T10:49:48;21.40;1.00
20174;DHT22;10246;50.620;7.232;2022-09-03T10:52:23;21.40;1.00
20174;DHT22;10246;50.620;7.232;2022-09-03T10:57:50;21.60;1.00
20174;DHT22;10246;50.620;7.232;2022-09-03T11:00:20;21.80;1.00
20174;DHT22;10246;50.620;7.232;2022-09-03T11:06:02;21.90;1.00
20174;DHT22;10246;50.620;7.232;2022-09-03T11:08:33;22.00;1.00
20174;DHT22;10246;50.620;7.232;2022-09-03T11:11:08;22.10;1.00
20174;DHT22;10246;50.620;7.232;2022-09-03T11:13:43;22.20;1.00
20174;DHT22;10246;50.620;7.232;2022-09-03T11:16:14;22.60;1.00
20174;DHT22;10246;50.620;7.232;2022-09-03T11:18:46;22.90;1.00
20174;DHT22;10246;50.620;7.232;2022-09-03T11:21:17;23.10;1.00
20174;DHT22;10246;50.620;7.232;2022-09-03T11:23:49;23.40;1.00
20174;DHT22;10246;50.620;7.232;2022-09-03T11:26:18;23.80;1.00
20174;DHT22;10246;50.620;7.232;2022-09-03T11:28:53;24.10;1.00
20174;DHT22;10246;50.620;7.232;2022-09-03T11:31:29;24.00;1.00
20174;DHT22;10246;50.620;7.232;2022-09-03T11:33:59;24.10;1.00
20174;DHT22;10246;50.620;7.232;2022-09-03T11:36:31;24.20;1.00
20174;DHT22;10246;50.620;7.232;2022-09-03T11:38:59;24.20;1.00
20174;DHT22;10246;50.620;7.232;2022-09-03T11:41:27;24.30;1.00
20174;DHT22;10246;50.620;7.232;2022-09-03T11:43:57;24.50;1.00
20174;DHT22;10246;50.620;7.232;2022-09-03T11:46:29;24.60;1.00
20174;DHT22;10246;50.620;7.232;2022-09-03T11:49:08;24.70;1.00
20174;DHT22;10246;50.620;7.232;2022-09-03T11:51:37;24.90;1.00
20174;DHT22;10246;50.620;7.232;2022-09-03T11:54:23;24.80;1.00
20174;DHT22;10246;50.620;7.232;2022-09-03T11:57:01;24.80;1.00
20174;DHT22;10246;50.620;7.232;2022-09-03T11:59:30;24.30;1.00
20174;DHT22;10246;50.620;7.232;2022-09-03T12:02:00;24.20;1.00
20174;DHT22;10246;50.620;7.232;2022-09-03T12:04:34;24.10;1.00
20174;DHT22;10246;50.620;7.232;2022-09-03T12:07:32;24.10;1.00
20174;DHT22;10246;50.620;7.232;2022-09-03T12:10:21;24.20;1.00
20174;DHT22;10246;50.620;7.232;2022-09-03T12:13:02;24.10;1.00
20174;DHT22;10246;50.620;7.232;2022-09-03T12:15:52;24.20;1.00
20174;DHT22;10246;50.620;7.232;2022-09-03T12:18:22;24.40;1.00
20174;DHT22;10246;50.620;7.232;2022-09-03T12:21:01;24.60;1.00
20174;DHT22;10246;50.620;7.232;2022-09-03T12:23:30;25.00;1.00
20174;DHT22;10246;50.620;7.232;2022-09-03T12:25:59;25.40;1.00
20174;DHT22;10246;50.620;7.232;2022-09-03T12:28:28;25.70;1.00
20174;DHT22;10246;50.620;7.232;2022-09-03T12:31:08;25.80;1.00
20174;DHT22;10246;50.620;7.232;2022-09-03T12:33:39;26.00;1.00
20174;DHT22;10246;50.620;7.232;2022-09-03T12:36:09;25.80;1.00
20174;DHT22;10246;50.620;7.232;2022-09-03T12:38:36;25.50;1.00
20174;DHT22;10246;50.620;7.232;2022-09-03T12:41:02;25.40;1.00
20174;DHT22;10246;50.620;7.232;2022-09-03T12:43:30;25.50;1.00
20174;DHT22;10246;50.620;7.232;2022-09-03T12:45:57;25.80;1.00
20174;DHT22;10246;50.620;7.232;2022-09-03T12:48:25;26.10;1.00
20174;DHT22;10246;50.620;7.232;2022-09-03T12:51:01;26.20;1.00
20174;DHT22;10246;50.620;7.232;2022-09-03T12:53:29;26.00;1.00
20174;DHT22;10246;50.620;7.232;2022-09-03T12:56:00;25.90;1.00
20174;DHT22;10246;50.620;7.232;2022-09-03T12:58:31;25.80;1.00
20174;DHT22;10246;50.620;7.232;2022-09-03T13:01:05;25.70;1.00
20174;DHT22;10246;50.620;7.232;2022-09-03T13:03:42;25.70;1.00
20174;DHT22;10246;50.620;7.232;2022-09-03T13:06:12;25.80;1.00
20174;DHT22;10246;50.620;7.232;2022-09-03T13:08:43;26.10;1.00
20174;DHT22;10246;50.620;7.232;2022-09-03T13:11:15;26.30;1.00
20174;DHT22;10246;50.620;7.232;2022-09-03T13:13:52;26.40;1.00
20174;DHT22;10246;50.620;7.232;2022-09-03T13:16:51;26.30;1.00
20174;DHT22;10246;50.620;7.232;2022-09-03T13:19:29;26.30;1.00
20174;DHT22;10246;50.620;7.232;2022-09-03T13:22:07;26.30;1.00
20174;DHT22;10246;50.620;7.232;2022-09-03T13:24:48;26.40;1.00
20174;DHT22;10246;50.620;7.232;2022-09-03T13:27:23;26.40;1.00
20174;DHT22;10246;50.620;7.232;2022-09-03T13:30:03;26.40;1.00
20174;DHT22;10246;50.620;7.232;2022-09-03T13:32:36;26.50;1.00
20174;DHT22;10246;50.620;7.232;2022-09-03T13:35:09;26.60;1.00
20174;DHT22;10246;50.620;7.232;2022-09-03T13:37:41;26.70;1.00
20174;DHT22;10246;50.620;7.232;2022-09-03T13:40:14;26.70;1.00
20174;DHT22;10246;50.620;7.232;2022-09-03T13:42:47;26.70;1.00
20174;DHT22;10246;50.620;7.232;2022-09-03T13:45:25;26.80;1.00
20174;DHT22;10246;50.620;7.232;2022-09-03T13:47:59;27.00;1.00
20174;DHT22;10246;50.620;7.232;2022-09-03T13:50:49;27.00;1.00
20174;DHT22;10246;50.620;7.232;2022-09-03T13:53:23;27.00;1.00
20174;DHT22;10246;50.620;7.232;2022-09-03T13:55:59;26.90;1.00
20174;DHT22;10246;50.620;7.232;2022-09-03T13:58:32;26.80;1.00
20174;DHT22;10246;50.620;7.232;2022-09-03T14:01:12;26.70;1.00
20174;DHT22;10246;50.620;7.232;2022-09-03T14:03:44;26.80;1.00
20174;DHT22;10246;50.620;7.232;2022-09-03T14:06:34;27.00;1.00
20174;DHT22;10246;50.620;7.232;2022-09-03T14:09:10;27.20;1.00
20174;DHT22;10246;50.620;7.232;2022-09-03T14:11:48;27.10;1.00
20174;DHT22;10246;50.620;7.232;2022-09-03T14:14:28;26.90;1.00
20174;DHT22;10246;50.620;7.232;2022-09-03T14:16:59;26.80;1.00
20174;DHT22;10246;50.620;7.232;2022-09-03T14:19:34;26.80;1.00
20174;DHT22;10246;50.620;7.232;2022-09-03T14:22:08;26.80;1.00
20174;DHT22;10246;50.620;7.232;2022-09-03T14:24:44;26.90;1.00
20174;DHT22;10246;50.620;7.232;2022-09-03T14:27:21;27.10;1.00
20174;DHT22;10246;50.620;7.232;2022-09-03T14:29:52;27.30;1.00
20174;DHT22;10246;50.620;7.232;2022-09-03T14:32:38;27.50;1.00
20174;DHT22;10246;50.620;7.232;2022-09-03T14:35:28;27.70;1.00
20174;DHT22;10246;50.620;7.232;2022-09-03T14:38:13;27.80;1.00
20174;DHT22;10246;50.620;7.232;2022-09-03T14:40:45;27.80;1.00
20174;DHT22;10246;50.620;7.232;2022-09-03T14:43:26;27.70;1.00
20174;DHT22;10246;50.620;7.232;2022-09-03T14:46:19;27.50;1.00
20174;DHT22;10246;50.620;7.232;2022-09-03T14:48:59;27.40;1.00
20174;DHT22;10246;50.620;7.232;2022-09-03T14:51:38;27.20;1.00
20174;DHT22;10246;50.620;7.232;2022-09-03T14:54:29;27.00;1.00
20174;DHT22;10246;50.620;7.232;2022-09-03T14:57:10;26.90;1.00
20174;DHT22;10246;50.620;7.232;2022-09-03T15:00:00;26.80;1.00
20174;DHT22;10246;50.620;7.232;2022-09-03T15:02:48;26.70;1.00
20174;DHT22;10246;50.620;7.232;2022-09-03T15:05:21;26.70;1.00
20174;DHT22;10246;50.620;7.232;2022-09-03T15:07:55;26.60;1.00
20174;DHT22;10246;50.620;7.232;2022-09-03T15:10:33;26.60;1.00
20174;DHT22;10246;50.620;7.232;2022-09-03T15:13:09;26.50;1.00
20174;DHT22;10246;50.620;7.232;2022-09-03T15:15:51;26.40;1.00
20174;DHT22;10246;50.620;7.232;2022-09-03T15:18:25;26.30;1.00
20174;DHT22;10246;50.620;7.232;2022-09-03T15:21:01;26.10;1.00
20174;DHT22;10246;50.620;7.232;2022-09-03T15:23:43;26.00;1.00
20174;DHT22;10246;50.620;7.232;2022-09-03T15:26:34;25.00;1.00
20174;DHT22;10246;50.620;7.232;2022-09-03T15:29:21;23.90;1.00
20174;DHT22;10246;50.620;7.232;2022-09-03T15:32:00;23.00;1.00
20174;DHT22;10246;50.620;7.232;2022-09-03T15:34:58;22.70;1.00
20174;DHT22;10246;50.620;7.232;2022-09-03T15:37:33;22.60;1.00
20174;DHT22;10246;50.620;7.232;2022-09-03T15:40:04;22.40;1.00
20174;DHT22;10246;50.620;7.232;2022-09-03T15:42:35;21.90;1.00
20174;DHT22;10246;50.620;7.232;2022-09-03T15:45:06;21.70;1.00
20174;DHT22;10246;50.620;7.232;2022-09-03T15:47:51;21.60;1.00
20174;DHT22;10246;50.620;7.232;2022-09-03T15:50:29;21.40;1.00
20174;DHT22;10246;50.620;7.232;2022-09-03T15:53:03;21.00;1.00
20174;DHT22;10246;50.620;7.232;2022-09-03T15:55:42;20.80;1.00
20174;DHT22;10246;50.620;7.232;2022-09-03T15:58:29;20.70;1.00
20174;DHT22;10246;50.620;7.232;2022-09-03T16:01:09;20.70;1.00
20174;DHT22;10246;50.620;7.232;2022-09-03T16:03:55;20.70;1.00
20174;DHT22;10246;50.620;7.232;2022-09-03T16:06:56;20.70;1.00
20174;DHT22;10246;50.620;7.232;2022-09-03T16:09:55;20.70;1.00
20174;DHT22;10246;50.620;7.232;2022-09-03T16:12:51;20.80;1.00
20174;DHT22;10246;50.620;7.232;2022-09-03T16:15:44;20.80;1.00
20174;DHT22;10246;50.620;7.232;2022-09-03T16:18:39;20.70;1.00
20174;DHT22;10246;50.620;7.232;2022-09-03T16:21:41;20.70;1.00
20174;DHT22;10246;50.620;7.232;2022-09-03T16:24:36;20.60;1.00
20174;DHT22;10246;50.620;7.232;2022-09-03T16:27:10;20.50;1.00
20174;DHT22;10246;50.620;7.232;2022-09-03T16:30:01;20.50;1.00
20174;DHT22;10246;50.620;7.232;2022-09-03T16:32:51;20.60;1.90
20174;DHT22;10246;50.620;7.232;2022-09-03T16:35:34;20.60;1.00
20174;DHT22;10246;50.620;7.232;2022-09-03T16:38:30;20.70;1.00
20174;DHT22;10246;50.620;7.232;2022-09-03T16:41:15;20.60;1.00
20174;DHT22;10246;50.620;7.232;2022-09-03T16:44:02;20.70;1.10